Time;durP1;ratioP1;P1;durP2;ratioP2;P2;SDS_P1;SDS_P2;PMS_P1;PMS_P2;Temp;Humidity;BMP_temperature;BMP_pressure;BME280_temperature;BME280_humidity;BME280_pressure;Samples;Min_cycle;Max_cycle;Signal;HPM_P1;HPM_P2
2021/05/26 00:01:21;;;;;;;1.67;1.43;;;12.60;99.90;;;;;;5079664;28;20196;-83
2021/05/26 00:03:47;;;;;;;2.27;1.23;;;12.50;99.90;;;;;;5097756;28;20215;-85
2021/05/26 00:06:12;;;;;;;2.20;1.23;;;12.40;99.90;;;;;;5079673;28;20815;-88
2021/05/26 00:08:38;;;;;;;2.90;1.57;;;12.30;99.90;;;;;;5096235;28;20267;-84
2021/05/26 00:11:07;;;;;;;1.67;1.40;;;12.30;99.90;;;;;;5078760;28;20206;-87
2021/05/26 00:13:34;;;;;;;1.93;1.30;;;12.30;99.90;;;;;;5081307;28;20176;-87
2021/05/26 00:16:00;;;;;;;1.30;1.20;;;12.30;99.90;;;;;;5079029;28;20490;-84
2021/05/26 00:18:26;;;;;;;1.90;1.70;;;12.40;99.90;;;;;;5097196;28;20865;-88
2021/05/26 00:20:53;;;;;;;1.43;1.17;;;12.50;99.90;;;;;;5096562;28;20409;-84
2021/05/26 00:23:19;;;;;;;2.10;1.57;;;12.40;99.90;;;;;;5079616;28;20698;-86
2021/05/26 00:25:45;;;;;;;2.73;1.73;;;12.30;99.90;;;;;;5078713;28;20433;-87
2021/05/26 00:28:11;;;;;;;1.77;1.47;;;12.40;99.90;;;;;;5085636;28;20489;-84
2021/05/26 00:30:45;;;;;;;1.60;1.50;;;12.40;99.90;;;;;;5078507;28;20208;-87
2021/05/26 00:33:11;;;;;;;1.83;1.50;;;12.20;99.90;;;;;;5096786;28;20409;-85
2021/05/26 00:35:36;;;;;;;2.50;1.50;;;12.10;99.90;;;;;;5078224;28;20451;-85
2021/05/26 00:38:03;;;;;;;3.47;1.33;;;12.10;99.90;;;;;;5096126;28;20429;-85
2021/05/26 00:40:29;;;;;;;1.60;1.33;;;12.00;99.90;;;;;;5078251;28;20261;-85
2021/05/26 00:42:54;;;;;;;1.67;1.50;;;12.00;99.90;;;;;;5096538;28;20421;-87
2021/05/26 00:45:20;;;;;;;5.23;2.10;;;11.90;99.90;;;;;;5078287;28;20196;-85
2021/05/26 00:47:48;;;;;;;4.87;1.50;;;11.90;99.90;;;;;;5094933;28;20191;-87
2021/05/26 00:50:20;;;;;;;2.10;1.40;;;11.90;99.90;;;;;;5078040;28;20204;-86
2021/05/26 00:52:45;;;;;;;1.77;1.63;;;11.90;99.90;;;;;;5078164;28;20480;-87
2021/05/26 00:55:17;;;;;;;1.63;1.53;;;12.00;99.90;;;;;;5077993;28;20405;-87
2021/05/26 00:57:42;;;;;;;4.72;1.60;;;12.00;99.90;;;;;;5078133;28;20177;-87
2021/05/26 01:00:10;;;;;;;2.73;1.67;;;12.00;99.90;;;;;;5095975;28;20672;-87
2021/05/26 01:02:37;;;;;;;1.60;1.50;;;12.00;99.90;;;;;;5095099;28;20334;-84
2021/05/26 01:05:07;;;;;;;7.88;1.40;;;12.10;99.90;;;;;;5078097;28;20176;-84
2021/05/26 01:07:33;;;;;;;1.70;1.52;;;12.00;99.90;;;;;;5095971;28;20234;-86
2021/05/26 01:09:59;;;;;;;1.37;1.27;;;11.90;99.90;;;;;;5077716;28;20184;-85
2021/05/26 01:12:25;;;;;;;2.80;1.43;;;11.80;99.90;;;;;;5104592;28;20512;-86
2021/05/26 01:14:51;;;;;;;2.97;1.63;;;11.80;99.90;;;;;;5095689;28;20544;-84
2021/05/26 01:17:16;;;;;;;1.43;1.30;;;11.70;99.90;;;;;;5095591;28;20439;-85
2021/05/26 01:19:42;;;;;;;2.37;1.50;;;11.70;99.90;;;;;;5077276;28;20676;-86
2021/05/26 01:22:08;;;;;;;3.90;2.20;;;11.70;99.90;;;;;;5095409;28;20200;-85
2021/05/26 01:24:35;;;;;;;3.23;1.70;;;11.70;99.90;;;;;;5095436;28;20183;-84
2021/05/26 01:27:02;;;;;;;2.30;1.73;;;11.80;99.90;;;;;;5094069;28;20470;-85
2021/05/26 01:29:28;;;;;;;2.40;1.60;;;11.70;99.90;;;;;;5077402;28;20508;-85
2021/05/26 01:31:54;;;;;;;1.90;1.50;;;11.80;99.90;;;;;;5077203;28;20456;-85
2021/05/26 01:34:21;;;;;;;1.90;1.70;;;11.90;99.90;;;;;;5077147;28;20409;-84
2021/05/26 01:36:47;;;;;;;3.38;1.90;;;11.80;99.90;;;;;;5077109;28;20432;-87
2021/05/26 01:39:15;;;;;;;3.70;1.70;;;11.70;99.90;;;;;;5095190;28;20291;-86
2021/05/26 01:41:41;;;;;;;4.00;1.70;;;11.70;99.90;;;;;;5077213;28;20192;-88
2021/05/26 01:44:06;;;;;;;3.70;1.77;;;11.70;99.90;;;;;;5077224;28;20176;-85
2021/05/26 01:46:32;;;;;;;1.70;1.60;;;11.70;99.90;;;;;;5077005;28;20188;-85
2021/05/26 01:48:58;;;;;;;2.13;1.77;;;11.50;99.90;;;;;;5094220;28;20183;-87
2021/05/26 01:51:23;;;;;;;2.50;1.60;;;11.50;99.90;;;;;;5090905;28;20264;-88
2021/05/26 01:53:52;;;;;;;4.87;1.83;;;11.40;99.90;;;;;;5075327;28;20440;-85
2021/05/26 01:56:22;;;;;;;3.28;2.45;;;11.40;99.90;;;;;;5083221;28;20201;-88
2021/05/26 01:58:52;;;;;;;2.83;1.80;;;11.40;99.90;;;;;;5081532;28;20217;-87
2021/05/26 02:01:19;;;;;;;2.15;1.63;;;11.20;99.90;;;;;;5091197;28;20563;-85
2021/05/26 02:03:45;;;;;;;3.42;1.90;;;11.10;99.90;;;;;;5073337;28;20224;-86
2021/05/26 02:06:12;;;;;;;2.72;1.60;;;11.00;99.90;;;;;;5074424;28;20189;-85
2021/05/26 02:08:39;;;;;;;6.10;1.52;;;11.10;99.90;;;;;;5073525;28;20649;-87
2021/05/26 02:13:48;;;;;;;3.75;1.75;;;11.10;99.90;;;;;;5075189;28;20184;-85
2021/05/26 02:16:14;;;;;;;2.90;1.40;;;11.10;99.90;;;;;;5073590;28;20193;-85
2021/05/26 02:18:40;;;;;;;3.28;1.60;;;11.10;99.90;;;;;;5074274;28;20307;-87
2021/05/26 02:21:06;;;;;;;3.40;1.63;;;11.00;99.90;;;;;;5072853;28;20288;-85
2021/05/26 02:23:31;;;;;;;2.60;1.70;;;11.00;99.90;;;;;;5074583;28;20185;-85
2021/05/26 02:25:57;;;;;;;3.23;1.50;;;11.00;99.90;;;;;;5073002;28;20563;-87
2021/05/26 02:28:23;;;;;;;1.87;1.70;;;11.00;99.90;;;;;;5073940;28;20185;-84
2021/05/26 02:30:49;;;;;;;1.83;1.30;;;11.00;99.90;;;;;;5072913;28;20193;-84
2021/05/26 02:33:15;;;;;;;1.47;1.17;;;11.00;99.90;;;;;;5074704;28;20852;-86
2021/05/26 02:35:40;;;;;;;3.00;1.33;;;10.90;99.90;;;;;;5072908;28;20197;-85
2021/05/26 02:38:06;;;;;;;6.13;1.83;;;10.80;99.90;;;;;;5072797;28;20459;-87
2021/05/26 02:40:33;;;;;;;4.77;1.40;;;10.80;99.90;;;;;;5075246;28;20200;-87
2021/05/26 02:43:00;;;;;;;1.77;1.67;;;10.80;99.90;;;;;;5073146;28;20187;-85
2021/05/26 02:45:26;;;;;;;1.40;1.30;;;10.90;99.90;;;;;;5072845;28;20201;-87
2021/05/26 02:47:52;;;;;;;1.55;1.27;;;10.90;99.90;;;;;;5072832;28;20187;-87
2021/05/26 02:50:18;;;;;;;1.60;1.50;;;10.90;99.90;;;;;;5072635;28;20292;-85
2021/05/26 02:52:45;;;;;;;5.27;1.70;;;10.70;99.90;;;;;;5075753;28;20481;-87
2021/05/26 02:55:16;;;;;;;1.77;1.40;;;10.60;99.90;;;;;;5075997;28;20164;-84
2021/05/26 02:57:42;;;;;;;2.67;1.63;;;10.40;99.90;;;;;;5075769;28;20188;-87
2021/05/26 03:00:10;;;;;;;5.25;2.00;;;10.20;99.90;;;;;;5093874;28;20718;-87
2021/05/26 03:02:35;;;;;;;3.35;1.40;;;10.20;99.90;;;;;;5094219;28;20173;-86
2021/05/26 03:05:02;;;;;;;1.83;1.70;;;10.10;99.90;;;;;;5093645;28;20251;-84
2021/05/26 03:07:28;;;;;;;2.35;1.60;;;10.10;99.90;;;;;;5075896;28;20177;-87
2021/05/26 03:09:54;;;;;;;1.97;1.47;;;10.10;99.90;;;;;;5075747;28;20582;-86
2021/05/26 03:12:19;;;;;;;2.57;1.53;;;10.20;99.90;;;;;;5075879;28;20184;-87
2021/05/26 03:14:45;;;;;;;1.67;1.57;;;10.20;99.90;;;;;;5075907;28;20645;-83
2021/05/26 03:17:10;;;;;;;2.17;1.80;;;10.20;99.90;;;;;;5094536;28;20282;-84
2021/05/26 03:19:36;;;;;;;2.20;1.67;;;10.00;99.90;;;;;;5092430;28;20298;-87
2021/05/26 03:22:02;;;;;;;2.87;2.00;;;9.80;99.90;;;;;;5092277;28;20555;-87
2021/05/26 03:24:28;;;;;;;4.93;1.95;;;9.80;99.90;;;;;;5093674;28;20562;-87
2021/05/26 03:26:53;;;;;;;1.50;1.40;;;9.80;99.90;;;;;;5094121;28;20196;-87
2021/05/26 03:29:19;;;;;;;2.60;2.07;;;9.90;99.90;;;;;;5079605;28;20178;-85
2021/05/26 03:31:45;;;;;;;1.77;1.63;;;9.90;99.90;;;;;;5097646;28;20192;-84
2021/05/26 03:34:11;;;;;;;2.20;1.98;;;9.80;99.90;;;;;;5086852;28;20230;-86
2021/05/26 03:36:39;;;;;;;1.87;1.70;;;9.60;99.90;;;;;;5079387;28;20611;-87
2021/05/26 03:39:06;;;;;;;2.33;2.10;;;9.60;99.90;;;;;;5096637;28;20239;-84
2021/05/26 03:41:31;;;;;;;10.25;2.08;;;9.90;99.90;;;;;;5097615;28;20189;-85
2021/05/26 03:43:57;;;;;;;7.40;3.00;;;10.00;99.90;;;;;;5083896;28;20176;-85
2021/05/26 03:46:24;;;;;;;2.60;2.03;;;10.10;99.90;;;;;;5099427;28;20551;-84
2021/05/26 03:48:50;;;;;;;2.15;1.95;;;10.10;99.90;;;;;;5099832;28;20169;-85
2021/05/26 03:51:16;;;;;;;2.38;1.70;;;10.20;99.90;;;;;;5098233;28;20220;-85
2021/05/26 03:53:41;;;;;;;2.30;1.90;;;10.20;99.90;;;;;;5097722;28;20244;-88
2021/05/26 03:56:07;;;;;;;2.27;2.07;;;10.30;99.90;;;;;;5079385;28;20192;-85
2021/05/26 03:58:35;;;;;;;2.10;1.70;;;10.30;99.90;;;;;;5079106;28;20208;-84
2021/05/26 04:01:02;;;;;;;2.33;1.85;;;10.30;99.90;;;;;;5097324;28;20192;-88
2021/05/26 04:03:27;;;;;;;1.65;1.55;;;10.40;99.90;;;;;;5095757;28;20181;-88
2021/05/26 04:05:53;;;;;;;7.60;2.07;;;10.60;99.90;;;;;;5078934;28;20568;-84
2021/05/26 04:08:18;;;;;;;1.87;1.73;;;10.60;99.90;;;;;;5079048;28;20191;-85
2021/05/26 04:10:44;;;;;;;1.97;1.60;;;10.50;99.90;;;;;;5095608;28;20192;-84
2021/05/26 04:13:10;;;;;;;2.90;2.10;;;10.50;99.90;;;;;;5078900;28;20181;-87
2021/05/26 04:15:35;;;;;;;2.37;2.00;;;10.60;99.90;;;;;;5096936;28;20539;-84
2021/05/26 04:18:06;;;;;;;2.20;1.60;;;10.70;99.90;;;;;;5079052;28;20184;-85
2021/05/26 04:20:32;;;;;;;3.90;1.90;;;10.70;99.90;;;;;;5096608;28;20695;-86
2021/05/26 04:22:57;;;;;;;2.58;1.58;;;10.70;99.90;;;;;;5078661;28;20176;-85
2021/05/26 04:25:23;;;;;;;1.97;1.40;;;10.80;99.90;;;;;;5086622;28;20203;-87
2021/05/26 04:27:49;;;;;;;1.70;1.47;;;10.80;99.90;;;;;;5078503;28;20584;-85
2021/05/26 04:30:16;;;;;;;1.73;1.50;;;11.00;99.90;;;;;;5077095;28;20444;-86
2021/05/26 04:32:41;;;;;;;4.15;1.65;;;11.00;99.90;;;;;;5096453;28;20184;-88
2021/05/26 04:35:08;;;;;;;1.97;1.77;;;11.00;99.90;;;;;;5100223;28;20661;-87
2021/05/26 04:37:33;;;;;;;1.30;1.20;;;11.10;99.90;;;;;;5083295;28;20188;-88
2021/05/26 04:39:59;;;;;;;1.40;1.30;;;11.10;99.90;;;;;;5059928;28;20211;-84
2021/05/26 04:42:24;;;;;;;3.30;1.70;;;11.20;99.90;;;;;;5050971;28;20180;-86
2021/05/26 04:44:50;;;;;;;3.73;1.50;;;11.20;99.90;;;;;;5095759;28;20172;-83
2021/05/26 04:47:16;;;;;;;1.70;1.60;;;11.20;99.90;;;;;;5076119;28;20565;-88
2021/05/26 04:49:41;;;;;;;2.03;1.43;;;11.40;99.90;;;;;;4997797;28;20199;-83
2021/05/26 04:52:07;;;;;;;2.73;1.50;;;11.50;99.90;;;;;;4992519;28;20228;-85
2021/05/26 04:54:33;;;;;;;3.03;1.70;;;11.50;99.90;;;;;;5056865;28;20194;-84
2021/05/26 04:56:59;;;;;;;4.85;1.50;;;11.60;99.90;;;;;;5067322;28;20571;-86
2021/05/26 04:59:25;;;;;;;2.23;1.53;;;11.80;99.90;;;;;;4980002;28;20207;-86
2021/05/26 05:01:51;;;;;;;3.80;1.87;;;11.90;99.90;;;;;;5031049;28;20199;-82
2021/05/26 05:04:16;;;;;;;2.70;1.77;;;11.90;99.90;;;;;;4990666;28;20237;-87
2021/05/26 05:06:42;;;;;;;2.23;1.60;;;12.00;99.90;;;;;;4984438;28;20200;-84
2021/05/26 05:09:10;;;;;;;3.20;2.03;;;12.20;99.90;;;;;;4983561;28;20544;-86
2021/05/26 05:11:36;;;;;;;2.97;1.65;;;12.30;99.90;;;;;;5011395;28;20204;-83
2021/05/26 05:14:01;;;;;;;4.23;3.80;;;12.40;99.90;;;;;;4990818;28;20197;-88
2021/05/26 05:16:27;;;;;;;2.63;1.97;;;12.50;99.90;;;;;;4999099;28;20453;-87
2021/05/26 05:18:54;;;;;;;3.33;2.07;;;12.60;99.90;;;;;;5003196;28;20208;-88
2021/05/26 05:21:20;;;;;;;4.55;2.28;;;12.70;99.90;;;;;;5032859;28;20205;-88
2021/05/26 05:23:45;;;;;;;4.93;2.10;;;12.80;99.90;;;;;;5088357;28;20645;-87
2021/05/26 05:26:11;;;;;;;2.60;2.00;;;13.00;99.90;;;;;;5021719;28;20444;-84
2021/05/26 05:28:37;;;;;;;2.10;2.00;;;13.10;99.90;;;;;;5076328;28;20247;-87
2021/05/26 05:31:03;;;;;;;4.03;2.10;;;13.10;99.90;;;;;;5036330;28;20283;-85
2021/05/26 05:33:28;;;;;;;2.20;1.63;;;13.20;99.90;;;;;;5036849;28;20533;-87
2021/05/26 05:35:55;;;;;;;2.73;2.00;;;13.40;99.90;;;;;;5003088;28;20249;-84
2021/05/26 05:38:21;;;;;;;4.07;2.03;;;13.40;99.90;;;;;;5035502;28;20191;-84
2021/05/26 05:40:47;;;;;;;1.73;1.40;;;13.50;99.90;;;;;;5020309;28;20573;-83
2021/05/26 05:43:14;;;;;;;1.70;1.20;;;13.70;99.90;;;;;;5046360;28;20429;-84
2021/05/26 05:45:40;;;;;;;1.57;1.43;;;13.70;99.90;;;;;;5038935;28;20450;-87
2021/05/26 05:48:08;;;;;;;2.20;1.57;;;13.80;99.90;;;;;;5002558;28;20465;-84
2021/05/26 05:50:34;;;;;;;4.23;1.83;;;13.90;99.90;;;;;;4985588;28;20450;-85
2021/05/26 05:53:00;;;;;;;2.23;1.80;;;14.00;99.90;;;;;;5065936;28;20634;-87
2021/05/26 05:55:26;;;;;;;3.10;1.67;;;14.00;99.90;;;;;;5049341;28;20226;-84
2021/05/26 05:57:53;;;;;;;2.37;1.50;;;14.00;99.90;;;;;;5045944;28;20188;-87
2021/05/26 06:00:20;;;;;;;1.90;1.30;;;14.00;99.90;;;;;;5046917;28;20213;-84
2021/05/26 06:02:46;;;;;;;3.10;1.60;;;14.10;99.90;;;;;;5036411;28;20431;-84
2021/05/26 06:05:15;;;;;;;3.07;1.50;;;14.20;99.90;;;;;;5043589;28;20945;-85
2021/05/26 06:07:41;;;;;;;2.03;1.60;;;14.40;99.90;;;;;;5054364;28;20437;-89
2021/05/26 06:10:08;;;;;;;2.83;1.53;;;14.70;99.90;;;;;;5038976;28;20426;-87
2021/05/26 06:12:34;;;;;;;2.07;1.60;;;14.80;99.90;;;;;;4999026;28;20183;-89
2021/05/26 06:14:59;;;;;;;4.93;2.03;;;14.90;99.90;;;;;;5004752;28;20438;-86
2021/05/26 06:17:25;;;;;;;3.00;1.40;;;15.00;99.90;;;;;;5049578;28;20436;-84
2021/05/26 06:19:51;;;;;;;1.83;1.70;;;15.10;99.90;;;;;;4986411;28;20235;-85
2021/05/26 06:22:17;;;;;;;3.13;1.50;;;15.10;99.90;;;;;;4993573;28;20216;-88
2021/05/26 06:24:43;;;;;;;2.40;1.37;;;15.20;99.90;;;;;;5050545;28;20438;-84
2021/05/26 06:27:09;;;;;;;1.40;1.30;;;15.70;99.90;;;;;;5026749;28;20307;-92
2021/05/26 06:29:34;;;;;;;4.03;1.40;;;15.70;99.90;;;;;;5010035;28;20479;-85
2021/05/26 06:32:00;;;;;;;2.30;1.10;;;15.50;99.90;;;;;;5026363;28;20665;-84
2021/05/26 06:34:28;;;;;;;3.23;1.10;;;15.50;99.90;;;;;;5033902;28;20266;-84
2021/05/26 06:36:54;;;;;;;1.40;1.30;;;15.50;99.90;;;;;;5025437;28;20208;-87
2021/05/26 06:39:20;;;;;;;2.30;1.17;;;15.60;99.90;;;;;;5044683;28;20470;-85
2021/05/26 06:41:46;;;;;;;1.73;1.10;;;15.80;99.90;;;;;;5031615;28;20458;-86
2021/05/26 06:44:12;;;;;;;2.73;1.47;;;16.00;99.90;;;;;;5028497;28;20463;-89
2021/05/26 06:46:41;;;;;;;2.13;1.37;;;16.10;99.90;;;;;;5043233;28;20204;-91
2021/05/26 06:49:08;;;;;;;3.23;1.20;;;16.10;99.90;;;;;;5033476;28;20192;-87
2021/05/26 06:51:35;;;;;;;2.30;1.33;;;16.00;99.90;;;;;;5027078;28;20457;-86
2021/05/26 06:54:00;;;;;;;1.60;1.30;;;16.10;99.90;;;;;;5062036;28;20428;-85
2021/05/26 06:56:26;;;;;;;2.17;1.67;;;16.30;99.90;;;;;;5016992;28;21056;-91
2021/05/26 06:58:52;;;;;;;2.40;1.30;;;16.40;99.90;;;;;;5003190;28;20222;-90
2021/05/26 07:01:18;;;;;;;1.03;0.93;;;16.70;99.90;;;;;;4988055;28;20955;-89
2021/05/26 07:03:44;;;;;;;2.47;1.33;;;16.70;99.90;;;;;;5007728;28;20649;-86
2021/05/26 07:06:09;;;;;;;1.40;1.07;;;16.80;99.90;;;;;;4989849;28;20300;-86
2021/05/26 07:08:35;;;;;;;2.77;1.60;;;16.80;99.90;;;;;;5005011;28;20875;-89
2021/05/26 07:11:01;;;;;;;6.47;1.40;;;16.90;99.90;;;;;;5019931;28;20291;-86
2021/05/26 07:13:27;;;;;;;1.60;1.20;;;17.00;99.90;;;;;;5043274;28;20543;-84
2021/05/26 07:15:53;;;;;;;1.13;1.00;;;17.10;99.90;;;;;;5000674;28;20450;-87
2021/05/26 07:18:18;;;;;;;1.27;0.80;;;17.10;99.90;;;;;;5080563;28;20184;-90
2021/05/26 07:20:46;;;;;;;1.43;1.20;;;17.20;99.90;;;;;;5022859;28;20227;-86
2021/05/26 07:23:12;;;;;;;4.77;1.30;;;17.40;99.90;;;;;;5033851;28;20199;-89
2021/05/26 07:25:38;;;;;;;2.80;1.30;;;17.40;99.90;;;;;;4989619;28;20475;-85
2021/05/26 07:28:04;;;;;;;3.93;1.40;;;17.60;99.90;;;;;;5000063;28;20458;-89
2021/05/26 07:30:30;;;;;;;1.00;0.80;;;17.60;99.90;;;;;;4993846;28;20449;-90
2021/05/26 07:32:56;;;;;;;1.27;0.97;;;17.70;99.90;;;;;;5008599;28;20495;-85
2021/05/26 07:35:22;;;;;;;1.67;0.97;;;17.70;99.90;;;;;;5016811;28;20436;-85
2021/05/26 07:37:48;;;;;;;3.37;1.20;;;17.70;99.90;;;;;;4975615;28;20365;-84
2021/05/26 07:40:14;;;;;;;0.90;0.83;;;17.70;99.90;;;;;;4983138;28;20229;-90
2021/05/26 07:42:40;;;;;;;0.83;0.83;;;17.70;99.90;;;;;;4975676;28;20440;-83
2021/05/26 07:45:07;;;;;;;1.30;1.00;;;17.90;99.90;;;;;;5017461;28;20817;-89
2021/05/26 07:47:33;;;;;;;1.30;0.90;;;18.30;99.90;;;;;;5002638;28;20432;-84
2021/05/26 07:49:59;;;;;;;1.57;1.20;;;18.20;99.90;;;;;;5043392;28;20426;-85
2021/05/26 07:52:27;;;;;;;3.13;1.63;;;18.00;99.90;;;;;;5026726;28;21021;-83
2021/05/26 07:54:53;;;;;;;1.20;1.10;;;18.20;99.90;;;;;;4993497;28;20184;-85
2021/05/26 07:57:19;;;;;;;1.50;1.13;;;18.30;99.90;;;;;;4991070;28;20465;-83
2021/05/26 07:59:45;;;;;;;2.30;1.70;;;18.40;99.90;;;;;;4996332;28;20212;-85
2021/05/26 08:02:12;;;;;;;1.83;1.27;;;18.30;99.90;;;;;;5003923;28;20208;-84
2021/05/26 08:04:38;;;;;;;0.90;0.90;;;18.50;99.90;;;;;;4974898;28;20436;-84
2021/05/26 08:07:04;;;;;;;3.07;1.50;;;18.60;99.90;;;;;;5000110;28;20939;-85
2021/05/26 08:09:30;;;;;;;1.57;1.17;;;18.70;99.90;;;;;;4998767;28;20457;-86
2021/05/26 08:11:55;;;;;;;2.10;1.00;;;18.60;99.90;;;;;;4982748;28;20445;-88
2021/05/26 08:14:22;;;;;;;1.17;1.00;;;18.80;99.80;;;;;;4983068;28;20852;-85
2021/05/26 08:16:50;;;;;;;1.73;1.10;;;18.70;99.00;;;;;;5033323;28;20212;-85
2021/05/26 08:19:16;;;;;;;1.20;1.07;;;18.60;99.00;;;;;;4996530;28;20476;-90
2021/05/26 08:21:42;;;;;;;1.83;1.13;;;18.70;98.80;;;;;;4983497;28;20453;-87
2021/05/26 08:24:09;;;;;;;2.97;0.80;;;18.80;98.50;;;;;;5016640;28;20432;-91
2021/05/26 08:26:35;;;;;;;1.93;0.87;;;19.00;97.40;;;;;;4984865;28;20201;-90
2021/05/26 08:29:03;;;;;;;1.23;0.73;;;19.10;96.80;;;;;;5032069;28;20442;-89
2021/05/26 08:31:29;;;;;;;1.07;0.90;;;19.00;96.10;;;;;;5004523;28;20454;-88
2021/05/26 08:33:55;;;;;;;0.83;0.67;;;19.00;95.90;;;;;;5006494;28;20443;-89
2021/05/26 08:36:20;;;;;;;3.23;0.70;;;19.40;95.30;;;;;;5040691;28;20532;-90
2021/05/26 08:38:46;;;;;;;2.40;0.67;;;19.40;93.10;;;;;;5030877;28;21060;-89
2021/05/26 08:41:13;;;;;;;0.73;0.60;;;19.10;93.30;;;;;;5045134;28;20292;-84
2021/05/26 08:43:41;;;;;;;1.33;1.07;;;19.20;95.20;;;;;;5043048;28;20277;-84
2021/05/26 08:46:08;;;;;;;2.50;1.00;;;19.40;95.30;;;;;;4985953;28;20830;-93
2021/05/26 08:48:35;;;;;;;0.80;0.80;;;19.50;94.40;;;;;;4994498;28;20443;-93
2021/05/26 08:51:02;;;;;;;2.23;1.03;;;19.50;95.20;;;;;;5037165;28;20451;-90
2021/05/26 08:53:28;;;;;;;0.83;0.80;;;19.50;95.40;;;;;;5018598;28;20444;-91
2021/05/26 08:55:55;;;;;;;2.43;1.00;;;19.90;94.30;;;;;;5003597;28;20454;-91
2021/05/26 08:58:21;;;;;;;1.10;0.70;;;20.00;94.50;;;;;;5014725;28;20194;-85
2021/05/26 09:00:47;;;;;;;1.40;1.10;;;20.00;92.80;;;;;;5013869;28;20455;-86
2021/05/26 09:03:16;;;;;;;1.17;0.77;;;20.20;92.50;;;;;;4985216;28;20528;-90
2021/05/26 09:05:50;;;;;;;1.40;0.80;;;20.00;92.60;;;;;;4989877;28;20451;-86
2021/05/26 09:08:15;;;;;;;1.17;0.80;;;20.10;93.60;;;;;;5023003;28;20507;-89
2021/05/26 09:10:49;;;;;;;1.40;0.90;;;20.40;91.30;;;;;;4990822;28;20456;-90
2021/05/26 09:13:34;;;;;;;0.70;0.67;;;20.60;90.40;;;;;;4977414;28;20202;-85
2021/05/26 09:16:02;;;;;;;0.80;0.80;;;20.50;90.30;;;;;;4989308;28;20506;-86
2021/05/26 09:18:28;;;;;;;1.10;0.73;;;20.40;89.90;;;;;;5005091;28;20470;-91
2021/05/26 09:20:56;;;;;;;0.90;0.90;;;20.40;90.30;;;;;;5015258;28;20444;-85
2021/05/26 09:23:31;;;;;;;1.67;0.80;;;20.50;89.10;;;;;;4986918;28;20283;-84
2021/05/26 09:25:59;;;;;;;2.90;0.80;;;20.50;89.70;;;;;;5039260;28;20902;-84
2021/05/26 09:28:35;;;;;;;0.80;0.63;;;20.80;90.40;;;;;;5009991;28;20444;-84
2021/05/26 09:31:05;;;;;;;0.93;0.73;;;20.80;90.50;;;;;;5002447;28;20464;-85
2021/05/26 09:33:41;;;;;;;0.60;0.60;;;21.10;87.10;;;;;;5017372;28;20441;-90
2021/05/26 09:36:15;;;;;;;1.80;0.70;;;21.40;85.30;;;;;;4993457;28;20457;-91
2021/05/26 09:38:46;;;;;;;0.60;0.50;;;21.40;86.70;;;;;;4986737;28;20825;-84
2021/05/26 09:41:13;;;;;;;1.47;0.93;;;21.30;83.20;;;;;;5006767;28;21040;-90
2021/05/26 09:43:49;;;;;;;0.70;0.70;;;20.90;82.30;;;;;;4990516;28;20812;-86
2021/05/26 09:46:32;;;;;;;3.53;1.07;;;20.70;85.30;;;;;;5018987;28;20432;-85
2021/05/26 09:49:11;;;;;;;2.23;0.63;;;20.70;87.70;;;;;;5028651;28;20870;-84
2021/05/26 09:51:44;;;;;;;1.87;0.63;;;20.70;85.70;;;;;;5033902;28;20468;-85
2021/05/26 09:54:29;;;;;;;1.53;0.70;;;20.70;82.40;;;;;;5050464;28;20487;-90
2021/05/26 09:57:07;;;;;;;1.17;0.77;;;20.60;87.50;;;;;;5061876;28;21411;-91
2021/05/26 09:59:35;;;;;;;0.80;0.70;;;20.80;86.20;;;;;;5009887;28;20480;-90
2021/05/26 10:02:06;;;;;;;0.70;0.70;;;21.00;80.00;;;;;;5040907;28;20483;-84
2021/05/26 10:04:31;;;;;;;1.40;0.83;;;20.90;79.50;;;;;;5010590;28;20436;-85
2021/05/26 10:07:04;;;;;;;1.40;0.60;;;21.00;83.20;;;;;;5043026;28;20461;-89
2021/05/26 10:09:32;;;;;;;2.90;0.63;;;21.00;84.00;;;;;;5011026;28;20241;-87
2021/05/26 10:11:59;;;;;;;1.50;0.67;;;21.60;84.60;;;;;;5028135;28;20443;-84
2021/05/26 10:14:27;;;;;;;1.43;1.33;;;21.50;80.30;;;;;;5027273;28;20432;-90
2021/05/26 10:16:56;;;;;;;0.57;0.50;;;21.90;81.10;;;;;;5020462;28;20829;-85
2021/05/26 10:19:23;;;;;;;0.90;0.60;;;22.00;79.10;;;;;;5034969;28;20838;-85
2021/05/26 10:21:50;;;;;;;1.10;0.67;;;21.90;77.40;;;;;;5062108;28;20429;-85
2021/05/26 10:24:19;;;;;;;1.33;0.60;;;21.90;79.00;;;;;;5051379;28;20450;-91
2021/05/26 10:26:50;;;;;;;3.17;0.70;;;21.90;78.60;;;;;;5073736;28;20429;-85
2021/05/26 10:29:28;;;;;;;1.27;0.60;;;22.00;78.60;;;;;;5014759;28;20417;-84
2021/05/26 10:32:07;;;;;;;1.50;0.67;;;22.00;77.60;;;;;;4980628;28;20523;-85
2021/05/26 10:34:46;;;;;;;1.40;0.70;;;21.70;77.30;;;;;;5009612;28;20429;-85
2021/05/26 10:37:30;;;;;;;1.33;0.60;;;21.80;77.10;;;;;;5004298;28;20462;-91
2021/05/26 10:39:56;;;;;;;0.77;0.70;;;22.20;78.60;;;;;;5002074;28;20467;-85
2021/05/26 10:42:35;;;;;;;0.97;0.60;;;22.20;77.00;;;;;;5008155;28;20871;-85
2021/05/26 10:45:04;;;;;;;1.20;1.10;;;22.10;74.10;;;;;;5086299;28;20436;-90
2021/05/26 10:47:39;;;;;;;1.40;0.60;;;22.20;74.90;;;;;;5025118;28;20443;-85
2021/05/26 10:50:06;;;;;;;1.63;0.93;;;22.10;73.20;;;;;;4968988;28;20431;-92
2021/05/26 10:52:56;;;;;;;0.83;0.60;;;22.30;74.30;;;;;;5007553;28;20482;-88
2021/05/26 10:55:36;;;;;;;2.30;0.60;;;22.50;72.70;;;;;;5038330;28;20480;-91
2021/05/26 10:58:18;;;;;;;1.80;0.80;;;22.70;73.40;;;;;;5024303;28;20986;-83
2021/05/26 11:00:57;;;;;;;0.80;0.60;;;22.40;70.30;;;;;;5063227;28;20483;-87
2021/05/26 11:03:26;;;;;;;1.50;0.60;;;21.90;72.00;;;;;;4989261;28;20451;-89
2021/05/26 11:06:00;;;;;;;1.20;0.70;;;21.80;75.50;;;;;;5041127;28;20476;-90
2021/05/26 11:08:51;;;;;;;1.60;0.80;;;22.70;79.90;;;;;;5012611;28;20796;-90
2021/05/26 11:14:03;;;;;;;1.80;0.77;;;23.50;72.90;;;;;;5065784;28;20780;-91
2021/05/26 11:16:41;;;;;;;1.10;0.70;;;23.60;84.30;;;;;;5018607;28;20478;-89
2021/05/26 11:19:15;;;;;;;1.00;0.67;;;23.90;85.10;;;;;;5017595;28;20820;-88
2021/05/26 11:21:54;;;;;;;1.90;1.40;;;23.90;77.20;;;;;;5012436;28;20495;-84
2021/05/26 11:24:21;;;;;;;1.83;0.77;;;23.00;73.70;;;;;;5004128;28;20425;-85
2021/05/26 11:26:47;;;;;;;0.87;0.70;;;23.60;80.80;;;;;;5012871;28;20441;-86
2021/05/26 11:29:24;;;;;;;1.17;0.70;;;23.80;84.00;;;;;;5006021;28;21063;-90
2021/05/26 11:32:13;;;;;;;0.70;0.67;;;24.00;76.40;;;;;;5033865;28;20444;-92
2021/05/26 11:34:41;;;;;;;0.73;0.50;;;24.00;88.10;;;;;;5054353;28;20958;-86
2021/05/26 11:37:08;;;;;;;0.67;0.53;;;23.90;72.70;;;;;;5019109;28;20561;-85
2021/05/26 11:39:35;;;;;;;1.30;0.60;;;23.90;82.60;;;;;;5006509;28;20465;-87
2021/05/26 11:42:07;;;;;;;1.90;1.00;;;23.80;72.20;;;;;;5008058;28;20462;-89
2021/05/26 11:44:38;;;;;;;1.20;0.60;;;24.00;84.50;;;;;;4991153;28;20406;-88
2021/05/26 11:47:04;;;;;;;2.23;0.50;;;24.10;82.60;;;;;;5001343;28;20469;-83
2021/05/26 11:49:36;;;;;;;0.73;0.70;;;24.20;86.30;;;;;;4987544;28;20436;-86
2021/05/26 11:52:10;;;;;;;1.90;0.40;;;24.00;90.10;;;;;;4998396;28;20829;-91
2021/05/26 11:55:00;;;;;;;1.23;0.80;;;23.90;90.40;;;;;;4978414;28;20425;-89
2021/05/26 11:57:37;;;;;;;1.03;0.60;;;24.00;90.30;;;;;;5003270;28;20516;-85
2021/05/26 12:00:11;;;;;;;1.53;0.60;;;24.00;87.20;;;;;;5012509;28;20469;-90
2021/05/26 12:03:00;;;;;;;2.03;0.80;;;24.30;88.30;;;;;;5004255;28;20548;-84
2021/05/26 12:05:42;;;;;;;0.77;0.70;;;23.70;70.30;;;;;;4998430;28;20508;-84
2021/05/26 12:08:21;;;;;;;4.87;1.00;;;23.30;75.50;;;;;;4998968;28;20480;-85
2021/05/26 12:11:09;;;;;;;0.70;0.60;;;24.00;81.20;;;;;;5002973;28;20470;-89
2021/05/26 12:13:41;;;;;;;1.97;0.70;;;23.80;69.80;;;;;;4994204;28;20494;-84
2021/05/26 12:16:12;;;;;;;0.77;0.70;;;23.90;73.10;;;;;;4999593;28;20436;-93
2021/05/26 12:18:39;;;;;;;0.70;0.63;;;24.50;80.30;;;;;;4989773;28;20437;-90
2021/05/26 12:21:06;;;;;;;0.80;0.67;;;24.80;77.40;;;;;;5016099;28;20489;-91
2021/05/26 12:23:59;;;;;;;0.70;0.70;;;24.90;85.80;;;;;;5014965;28;20517;-84
2021/05/26 12:26:35;;;;;;;0.60;0.60;;;24.60;85.80;;;;;;5036065;28;20468;-93
2021/05/26 12:29:09;;;;;;;1.63;0.90;;;25.00;85.20;;;;;;5047390;28;21002;-93
2021/05/26 12:31:35;;;;;;;0.77;0.50;;;25.00;74.80;;;;;;5060605;28;20460;-90
2021/05/26 12:34:02;;;;;;;2.20;0.90;;;24.80;83.10;;;;;;5036486;28;20441;-85
2021/05/26 12:36:29;;;;;;;0.83;0.83;;;25.20;83.80;;;;;;5015274;28;21283;-86
2021/05/26 12:39:04;;;;;;;0.90;0.70;;;25.40;80.80;;;;;;5000595;28;20499;-85
2021/05/26 12:41:37;;;;;;;1.00;0.77;;;25.80;82.80;;;;;;5011344;28;20481;-95
2021/05/26 12:44:09;;;;;;;1.80;0.80;;;25.70;75.30;;;;;;5017589;28;20487;-93
2021/05/26 12:46:50;;;;;;;2.70;1.20;;;25.80;76.60;;;;;;5035395;28;20469;-93
2021/05/26 12:52:02;;;;;;;2.50;0.80;;;26.10;76.90;;;;;;4984994;28;20509;-86
2021/05/26 12:54:42;;;;;;;0.80;0.60;;;26.20;79.50;;;;;;4991811;28;20763;-93
2021/05/26 12:57:17;;;;;;;1.23;0.70;;;26.20;71.40;;;;;;5073688;28;20452;-87
2021/05/26 12:59:44;;;;;;;1.33;0.90;;;26.00;78.50;;;;;;5041691;28;20478;-92
2021/05/26 13:02:12;;;;;;;1.07;0.93;;;26.20;68.00;;;;;;5038651;28;20458;-92